createdAt,value
2017-11-11T00:00:02.843Z,11.20
2017-11-11T00:02:30.399Z,12.17
2017-11-11T00:04:57.970Z,8.93
2017-11-11T00:07:25.542Z,12.87
2017-11-11T00:09:53.198Z,11.40
2017-11-11T00:12:20.761Z,15.50
2017-11-11T00:14:48.314Z,13.43
2017-11-11T00:17:15.896Z,11.93
2017-11-11T00:19:43.528Z,15.77
2017-11-11T00:22:11.090Z,11.57
2017-11-11T00:24:38.721Z,13.60
2017-11-11T00:27:06.283Z,12.10
2017-11-11T00:29:33.856Z,13.37
2017-11-11T00:32:01.426Z,13.30
2017-11-11T00:34:28.975Z,12.13
2017-11-11T00:36:56.521Z,18.13
2017-11-11T00:39:24.073Z,14.93
2017-11-11T00:41:51.640Z,12.50
2017-11-11T00:44:19.219Z,13.60
2017-11-11T00:46:46.795Z,12.20
2017-11-11T00:49:14.438Z,11.60
2017-11-11T00:51:42.020Z,14.77
2017-11-11T00:54:09.566Z,13.68
2017-11-11T00:56:37.163Z,15.70
2017-11-11T00:59:04.711Z,12.93
2017-11-11T01:01:32.268Z,15.60
2017-11-11T01:03:59.830Z,18.00
2017-11-11T01:06:27.414Z,16.20
2017-11-11T01:08:55.757Z,16.45
2017-11-11T01:11:23.334Z,14.07
2017-11-11T01:13:50.972Z,18.10
2017-11-11T01:16:18.560Z,15.43
2017-11-11T01:18:46.127Z,14.57
2017-11-11T01:21:13.682Z,16.63
2017-11-11T01:23:42.774Z,15.32
2017-11-11T01:26:10.333Z,15.93
2017-11-11T01:28:37.907Z,12.57
2017-11-11T01:31:05.469Z,18.80
2017-11-11T01:33:33.070Z,16.98
2017-11-11T01:36:00.603Z,19.23
2017-11-11T01:38:28.946Z,21.40
2017-11-11T01:40:56.587Z,15.27
2017-11-11T01:43:24.140Z,19.77
2017-11-11T01:45:51.819Z,16.80
2017-11-11T01:48:19.382Z,24.80
2017-11-11T01:50:46.932Z,20.30
2017-11-11T01:53:14.487Z,21.67
2017-11-11T01:55:42.098Z,20.03
2017-11-11T01:58:10.400Z,21.27
2017-11-11T02:00:38.021Z,16.77
2017-11-11T02:03:05.576Z,13.48
2017-11-11T02:05:33.150Z,21.75
2017-11-11T02:08:00.713Z,12.20
2017-11-11T02:10:28.302Z,19.87
2017-11-11T02:12:55.863Z,15.35
2017-11-11T02:15:23.440Z,19.13
2017-11-11T02:17:50.991Z,19.53
2017-11-11T02:20:18.627Z,16.97
2017-11-11T02:22:46.979Z,15.55
2017-11-11T02:25:14.633Z,14.52
2017-11-11T02:27:42.214Z,16.20
2017-11-11T02:30:09.854Z,12.18
2017-11-11T02:32:37.455Z,16.77
2017-11-11T02:35:05.794Z,13.65
2017-11-11T02:37:33.390Z,15.30
2017-11-11T02:40:01.776Z,14.95
2017-11-11T02:42:29.355Z,16.42
2017-11-11T02:44:56.927Z,13.70
2017-11-11T02:47:24.490Z,13.70
2017-11-11T02:49:52.121Z,13.93
2017-11-11T02:52:19.712Z,14.57
2017-11-11T02:54:47.302Z,11.60
2017-11-11T02:57:14.851Z,18.87
2017-11-11T02:59:42.564Z,15.70
2017-11-11T03:02:10.102Z,11.77
2017-11-11T03:04:37.678Z,12.13
2017-11-11T03:07:05.994Z,11.63
2017-11-11T03:09:33.651Z,15.50
2017-11-11T03:12:01.198Z,12.90
2017-11-11T03:14:28.784Z,11.30
2017-11-11T03:16:56.370Z,11.70
2017-11-11T03:19:24.053Z,18.00
2017-11-11T03:21:52.397Z,9.73
2017-11-11T03:24:19.954Z,14.18
2017-11-11T03:26:47.582Z,13.43
2017-11-11T03:29:15.468Z,9.50
2017-11-11T03:31:43.829Z,13.60
2017-11-11T03:34:11.392Z,8.52
2017-11-11T03:36:38.965Z,13.20
2017-11-11T03:39:06.569Z,14.25
2017-11-11T03:41:34.120Z,14.40
2017-11-11T03:44:01.703Z,18.50
2017-11-11T03:46:30.039Z,7.35
2017-11-11T03:48:57.608Z,15.35
2017-11-11T03:51:25.211Z,22.05
2017-11-11T03:53:52.803Z,20.67
2017-11-11T03:56:20.347Z,8.52
2017-11-11T03:58:47.936Z,12.20
2017-11-11T04:01:15.542Z,12.45
2017-11-11T04:03:43.966Z,11.82
2017-11-11T04:06:11.523Z,10.65
2017-11-11T04:08:39.078Z,11.93
2017-11-11T04:11:06.637Z,12.20
2017-11-11T04:13:34.187Z,14.95
2017-11-11T04:16:01.757Z,9.88
2017-11-11T04:18:29.295Z,14.15
2017-11-11T04:20:56.841Z,17.65
2017-11-11T04:23:25.158Z,20.00
2017-11-11T04:25:52.754Z,15.57
2017-11-11T04:28:20.302Z,13.60
2017-11-11T04:30:47.854Z,12.63
2017-11-11T04:33:15.415Z,19.62
2017-11-11T04:35:42.991Z,14.57
2017-11-11T04:38:10.549Z,19.70
2017-11-11T04:40:38.119Z,13.98
2017-11-11T04:43:05.686Z,11.30
2017-11-11T04:45:33.254Z,10.20
2017-11-11T04:48:01.598Z,14.75
2017-11-11T04:50:29.165Z,10.70
2017-11-11T04:52:56.731Z,11.75
2017-11-11T04:55:24.326Z,14.27
2017-11-11T04:57:52.625Z,16.60
2017-11-11T05:00:20.182Z,12.40
2017-11-11T05:02:47.734Z,9.27
2017-11-11T05:05:15.282Z,12.40
2017-11-11T05:07:43.620Z,13.90
2017-11-11T05:10:11.201Z,12.50
2017-11-11T05:12:38.750Z,10.82
2017-11-11T05:15:06.305Z,14.17
2017-11-11T05:17:33.883Z,14.52
2017-11-11T05:20:02.211Z,18.17
2017-11-11T05:22:29.768Z,15.32
2017-11-11T05:24:57.339Z,14.57
2017-11-11T05:27:24.914Z,18.42
2017-11-11T05:29:52.462Z,14.10
2017-11-11T05:32:20.010Z,16.23
2017-11-11T05:34:47.588Z,11.10
2017-11-11T05:37:15.141Z,15.43
2017-11-11T05:39:42.702Z,13.40
2017-11-11T05:42:10.245Z,17.08
2017-11-11T05:44:38.074Z,23.58
2017-11-11T05:47:06.396Z,11.93
2017-11-11T05:49:33.973Z,19.40
2017-11-11T05:52:01.544Z,14.20
2017-11-11T05:54:29.103Z,16.23
2017-11-11T05:56:56.648Z,14.50
2017-11-11T05:59:24.233Z,21.53
2017-11-11T06:01:51.790Z,11.52
2017-11-11T06:04:19.364Z,15.65
2017-11-11T06:06:47.697Z,15.77
2017-11-11T06:09:16.136Z,13.67
2017-11-11T06:11:44.501Z,14.70
2017-11-11T06:14:12.126Z,22.00
2017-11-11T06:16:40.518Z,22.07
2017-11-11T06:19:08.095Z,18.37
2017-11-11T06:21:42.461Z,16.58
2017-11-11T06:24:12.540Z,11.30
2017-11-11T06:26:40.902Z,12.73
2017-11-11T06:29:08.480Z,13.48
2017-11-11T06:31:36.100Z,13.57
2017-11-11T06:34:03.690Z,21.35
2017-11-11T06:36:31.258Z,20.98
2017-11-11T06:38:58.804Z,14.32
2017-11-11T06:41:27.135Z,11.03
2017-11-11T06:43:54.701Z,12.05
2017-11-11T06:46:22.282Z,17.73
2017-11-11T06:48:50.526Z,9.37
2017-11-11T06:51:21.212Z,11.33
2017-11-11T06:53:48.813Z,10.38
2017-11-11T06:56:17.130Z,16.27
2017-11-11T06:58:45.473Z,16.80
2017-11-11T07:01:13.796Z,14.00
2017-11-11T07:03:41.934Z,17.10
2017-11-11T07:06:09.474Z,12.60
2017-11-11T07:08:37.803Z,7.60
2017-11-11T07:11:05.358Z,23.85
2017-11-11T07:13:32.927Z,20.47
2017-11-11T07:16:01.308Z,13.43
2017-11-11T07:18:30.876Z,20.73
2017-11-11T07:20:59.324Z,31.02
2017-11-11T07:23:27.033Z,21.80
2017-11-11T07:25:54.870Z,18.70
2017-11-11T07:28:32.456Z,17.62
2017-11-11T07:31:05.985Z,20.23
2017-11-11T07:33:33.566Z,22.48
2017-11-11T07:36:01.896Z,20.75
2017-11-11T07:38:29.466Z,13.02
2017-11-11T07:40:57.062Z,20.75
2017-11-11T07:43:24.630Z,18.63
2017-11-11T07:45:53.017Z,32.67
2017-11-11T07:48:21.477Z,16.73
2017-11-11T07:50:49.920Z,21.33
2017-11-11T07:53:17.496Z,35.28
2017-11-11T07:55:45.148Z,26.15
2017-11-11T07:58:13.794Z,20.20
2017-11-11T08:00:41.509Z,12.73
2017-11-11T08:03:09.061Z,14.82
2017-11-11T08:05:36.650Z,23.85
2017-11-11T08:08:04.223Z,18.95
2017-11-11T08:10:32.566Z,20.10
2017-11-11T08:13:00.118Z,21.98
2017-11-11T08:15:27.688Z,23.10
2017-11-11T08:17:55.284Z,19.67
2017-11-11T08:20:23.646Z,12.45
2017-11-11T08:22:51.195Z,11.45
2017-11-11T08:25:18.774Z,9.30
2017-11-11T08:27:47.123Z,7.90
2017-11-11T08:30:14.708Z,12.52
2017-11-11T08:32:42.323Z,13.90
2017-11-11T08:35:09.919Z,14.13
2017-11-11T08:37:37.540Z,20.20
2017-11-11T08:40:05.121Z,12.52
2017-11-11T08:42:32.720Z,14.95
2017-11-11T08:45:01.050Z,16.75
2017-11-11T08:47:28.649Z,13.65
2017-11-11T08:49:56.203Z,7.93
2017-11-11T08:52:23.819Z,8.60
2017-11-11T08:54:51.400Z,12.43
2017-11-11T08:57:18.985Z,9.63
2017-11-11T08:59:46.573Z,11.57
2017-11-11T09:02:15.775Z,9.98
2017-11-11T09:04:48.919Z,14.38
2017-11-11T09:07:19.351Z,14.83
2017-11-11T09:09:47.185Z,12.30
2017-11-11T09:12:14.769Z,13.95
2017-11-11T09:14:42.328Z,7.93
2017-11-11T09:17:09.889Z,11.75
2017-11-11T09:19:37.457Z,10.80
2017-11-11T09:22:05.020Z,11.97
2017-11-11T09:24:32.664Z,13.13
2017-11-11T09:27:00.237Z,11.88
2017-11-11T09:29:27.812Z,19.33
2017-11-11T09:31:55.389Z,14.30
2017-11-11T09:34:23.820Z,8.93
2017-11-11T09:36:51.391Z,12.83
2017-11-11T09:39:18.971Z,14.53
2017-11-11T09:41:46.533Z,18.40
2017-11-11T09:44:14.107Z,50.67
2017-11-11T09:46:41.668Z,15.33
2017-11-11T09:49:09.225Z,10.50
2017-11-11T09:51:36.799Z,15.47
2017-11-11T09:54:05.135Z,9.97
2017-11-11T09:56:32.671Z,10.20
2017-11-11T09:59:00.229Z,11.97
2017-11-11T10:01:27.797Z,10.17
2017-11-11T10:04:21.190Z,8.02
2017-11-11T10:07:03.925Z,10.80
2017-11-11T10:09:31.462Z,18.17
2017-11-11T10:11:59.217Z,10.68
2017-11-11T10:14:26.771Z,17.83
2017-11-11T10:16:54.341Z,23.00
2017-11-11T10:19:21.895Z,23.40
2017-11-11T10:21:49.476Z,11.27
2017-11-11T10:24:17.051Z,12.30
2017-11-11T10:26:44.611Z,15.03
2017-11-11T10:29:12.193Z,15.90
2017-11-11T10:31:40.542Z,13.30
2017-11-11T10:34:08.171Z,11.80
2017-11-11T10:36:35.788Z,13.67
2017-11-11T10:39:03.384Z,9.87
2017-11-11T10:41:30.997Z,13.87
2017-11-11T10:43:58.553Z,13.23
2017-11-11T10:46:26.419Z,13.10
2017-11-11T10:48:54.863Z,13.60
2017-11-11T10:51:22.488Z,12.93
2017-11-11T10:53:50.975Z,9.27
2017-11-11T10:56:18.565Z,18.58
2017-11-11T10:58:46.119Z,14.50
2017-11-11T11:01:13.701Z,15.10
2017-11-11T11:03:41.269Z,29.40
2017-11-11T11:06:08.824Z,22.40
2017-11-11T11:08:36.429Z,20.00
2017-11-11T11:11:04.767Z,12.97
2017-11-11T11:13:32.330Z,18.70
2017-11-11T11:16:00.695Z,22.00
2017-11-11T11:18:28.253Z,16.20
2017-11-11T11:20:55.862Z,20.17
2017-11-11T11:23:23.402Z,23.43
2017-11-11T11:25:50.971Z,13.67
2017-11-11T11:28:18.508Z,15.77
2017-11-11T11:30:46.117Z,20.17
2017-11-11T11:33:14.512Z,16.60
2017-11-11T11:35:42.900Z,13.43
2017-11-11T11:38:10.464Z,18.23
2017-11-11T11:40:38.051Z,16.40
2017-11-11T11:43:05.642Z,16.70
2017-11-11T11:45:33.403Z,16.87
2017-11-11T11:48:00.999Z,19.08
2017-11-11T11:50:28.606Z,16.85
2017-11-11T11:52:56.200Z,18.55
2017-11-11T11:55:25.540Z,17.73
2017-11-11T11:57:55.039Z,11.97
2017-11-11T12:00:22.610Z,12.90
2017-11-11T12:02:50.202Z,21.33
2017-11-11T12:05:17.914Z,14.10
2017-11-11T12:07:45.595Z,12.30
2017-11-11T12:10:13.171Z,12.27
2017-11-11T12:12:40.758Z,12.83
2017-11-11T12:15:08.339Z,11.30
2017-11-11T12:17:35.899Z,10.23
2017-11-11T12:20:04.248Z,42.60
2017-11-11T12:22:31.851Z,45.58
2017-11-11T12:25:00.192Z,56.58
2017-11-11T12:27:27.756Z,14.90
2017-11-11T12:29:55.324Z,15.85
2017-11-11T12:32:22.888Z,14.50
2017-11-11T12:34:50.439Z,61.27
2017-11-11T12:37:18.009Z,22.63
2017-11-11T12:39:45.574Z,14.10
2017-11-11T12:42:13.144Z,8.02
2017-11-11T12:44:41.480Z,7.85
2017-11-11T12:47:09.061Z,5.20
2017-11-11T12:49:36.649Z,6.80
2017-11-11T12:52:04.985Z,7.07
2017-11-11T12:54:32.565Z,6.40
2017-11-11T12:57:00.135Z,4.10
2017-11-11T12:59:27.707Z,5.27
2017-11-11T13:01:56.045Z,7.47
2017-11-11T13:04:23.647Z,9.75
2017-11-11T13:06:51.992Z,6.32
2017-11-11T13:09:20.332Z,8.43
2017-11-11T13:11:47.898Z,6.82
2017-11-11T13:14:15.463Z,8.40
2017-11-11T13:16:43.068Z,9.10
2017-11-11T13:19:10.619Z,6.00
2017-11-11T13:21:38.190Z,7.80
2017-11-11T13:24:05.769Z,6.87
2017-11-11T13:26:34.108Z,5.07
2017-11-11T13:29:01.677Z,7.03
2017-11-11T13:31:29.313Z,6.97
2017-11-11T13:33:56.873Z,7.93
2017-11-11T13:36:24.448Z,6.03
2017-11-11T13:38:53.944Z,4.97
2017-11-11T13:41:21.653Z,5.97
2017-11-11T13:43:50.027Z,4.50
2017-11-11T13:46:17.940Z,3.53
2017-11-11T13:48:45.595Z,8.20
2017-11-11T13:51:13.648Z,3.27
2017-11-11T13:53:42.014Z,5.83
2017-11-11T13:56:09.547Z,6.67
2017-11-11T13:58:37.137Z,6.00
2017-11-11T14:01:05.700Z,12.93
2017-11-11T14:03:33.330Z,3.60
2017-11-11T14:06:01.234Z,4.80
2017-11-11T14:08:28.800Z,5.40
2017-11-11T14:10:56.404Z,4.23
2017-11-11T14:13:23.974Z,4.20
2017-11-11T14:15:51.852Z,4.70
2017-11-11T14:18:20.174Z,7.70
2017-11-11T14:21:15.672Z,11.63
2017-11-11T14:23:43.349Z,6.70
2017-11-11T14:26:11.701Z,8.90
2017-11-11T14:28:39.265Z,8.10
2017-11-11T14:31:06.908Z,6.70
2017-11-11T14:33:34.588Z,6.05
2017-11-11T14:36:02.181Z,9.30
2017-11-11T14:38:29.791Z,6.00
2017-11-11T14:40:57.343Z,6.27
2017-11-11T14:43:24.930Z,6.83
2017-11-11T14:45:53.312Z,4.47
2017-11-11T14:48:20.882Z,9.18
2017-11-11T14:50:49.194Z,11.30
2017-11-11T14:53:16.793Z,8.63
2017-11-11T14:55:44.347Z,9.17
2017-11-11T14:58:11.999Z,7.10
2017-11-11T15:00:39.567Z,5.13
2017-11-11T15:03:07.175Z,8.93
2017-11-11T15:05:35.527Z,7.15
2017-11-11T15:08:03.122Z,7.87
2017-11-11T15:10:31.453Z,7.17
2017-11-11T15:12:59.009Z,11.55
2017-11-11T15:15:26.633Z,5.80
2017-11-11T15:17:54.253Z,7.68
2017-11-11T15:20:21.835Z,9.80
2017-11-11T15:22:50.199Z,14.23
2017-11-11T15:25:17.789Z,12.83
2017-11-11T15:27:45.375Z,14.23
2017-11-11T15:30:12.975Z,38.30
2017-11-11T15:32:40.543Z,9.23
2017-11-11T15:35:08.182Z,13.83
2017-11-11T15:37:35.779Z,56.90
2017-11-11T15:40:04.155Z,35.60
2017-11-11T15:42:32.664Z,20.77
2017-11-11T15:45:00.245Z,28.42
2017-11-11T15:47:27.840Z,67.23
2017-11-11T15:49:55.434Z,49.47
2017-11-11T15:52:23.803Z,53.87
2017-11-11T15:54:51.608Z,28.90
2017-11-11T15:57:19.197Z,19.35
2017-11-11T15:59:47.967Z,24.10
2017-11-11T16:02:15.527Z,26.80
2017-11-11T16:04:43.107Z,18.40
2017-11-11T16:07:10.707Z,11.70
2017-11-11T16:09:39.179Z,9.73
2017-11-11T16:12:06.744Z,7.50
2017-11-11T16:14:35.121Z,9.27
2017-11-11T16:17:03.472Z,10.43
2017-11-11T16:19:31.027Z,10.80
2017-11-11T16:21:58.606Z,9.70
2017-11-11T16:24:26.174Z,11.07
2017-11-11T16:26:54.511Z,10.60
2017-11-11T16:29:22.139Z,10.45
2017-11-11T16:31:49.708Z,7.93
2017-11-11T16:34:17.282Z,10.67
2017-11-11T16:36:44.846Z,8.20
2017-11-11T16:39:12.432Z,7.53
2017-11-11T16:41:39.986Z,6.80
2017-11-11T16:44:07.570Z,6.30
2017-11-11T16:46:35.147Z,5.20
2017-11-11T16:49:03.509Z,5.70
2017-11-11T16:51:31.097Z,5.00
2017-11-11T16:53:59.414Z,7.50
2017-11-11T16:56:26.986Z,6.57
2017-11-11T16:58:54.524Z,7.20
2017-11-11T17:01:22.109Z,9.80
2017-11-11T17:03:49.650Z,7.17
2017-11-11T17:06:17.216Z,4.70
2017-11-11T17:08:44.761Z,5.03
2017-11-11T17:11:12.329Z,4.93
2017-11-11T17:13:39.889Z,6.53
2017-11-11T17:16:07.462Z,5.17
2017-11-11T17:18:35.003Z,5.50
2017-11-11T17:21:02.558Z,5.30
2017-11-11T17:23:30.142Z,16.27
2017-11-11T17:25:57.735Z,9.90
2017-11-11T17:28:25.294Z,16.73
2017-11-11T17:30:53.637Z,12.87
2017-11-11T17:33:21.196Z,11.53
2017-11-11T17:35:48.768Z,16.93
2017-11-11T17:38:16.336Z,14.83
2017-11-11T17:40:44.755Z,10.63
2017-11-11T17:43:12.328Z,9.70
2017-11-11T17:45:39.921Z,21.70
2017-11-11T17:48:07.495Z,18.23
2017-11-11T17:50:35.056Z,8.50
2017-11-11T17:53:02.618Z,7.90
2017-11-11T17:55:30.161Z,6.77
2017-11-11T17:57:57.953Z,5.13
2017-11-11T18:00:25.540Z,8.23
2017-11-11T18:02:56.229Z,6.50
2017-11-11T18:05:24.099Z,6.17
2017-11-11T18:07:51.686Z,8.47
2017-11-11T18:10:19.249Z,6.20
2017-11-11T18:12:49.102Z,6.03
2017-11-11T18:15:17.565Z,6.03
2017-11-11T18:17:45.142Z,6.80
2017-11-11T18:20:13.446Z,6.00
2017-11-11T18:22:43.001Z,8.70
2017-11-11T18:25:10.560Z,5.87
2017-11-11T18:27:38.132Z,5.77
2017-11-11T18:30:05.690Z,5.63
2017-11-11T18:32:33.268Z,20.73
2017-11-11T18:35:00.842Z,5.17
2017-11-11T18:37:29.200Z,6.70
2017-11-11T18:39:56.748Z,4.57
2017-11-11T18:42:24.403Z,5.53
2017-11-11T18:44:52.319Z,7.50
2017-11-11T18:47:20.061Z,5.87
2017-11-11T18:49:48.564Z,5.00
2017-11-11T18:52:16.585Z,6.90
2017-11-11T18:54:44.182Z,5.50
2017-11-11T18:57:12.496Z,7.77
2017-11-11T18:59:40.472Z,4.97
2017-11-11T19:02:08.324Z,6.90
2017-11-11T19:04:36.098Z,9.70
2017-11-11T19:07:03.697Z,6.50
2017-11-11T19:09:31.566Z,4.60
2017-11-11T19:12:00.570Z,5.33
2017-11-11T19:14:29.553Z,4.67
2017-11-11T19:16:57.145Z,4.77
2017-11-11T19:19:25.526Z,5.67
2017-11-11T19:21:53.943Z,5.73
2017-11-11T19:24:21.884Z,6.77
2017-11-11T19:26:49.713Z,5.30
2017-11-11T19:29:17.332Z,10.20
2017-11-11T19:31:44.956Z,5.23
2017-11-11T19:34:13.321Z,6.23
2017-11-11T19:36:41.702Z,5.03
2017-11-11T19:39:09.310Z,5.10
2017-11-11T19:41:36.899Z,5.00
2017-11-11T19:44:04.875Z,9.20
2017-11-11T19:46:33.781Z,5.97
2017-11-11T19:49:01.739Z,5.23
2017-11-11T19:51:30.253Z,5.23
2017-11-11T19:53:58.855Z,6.20
2017-11-11T19:56:26.604Z,7.20
2017-11-11T19:58:56.835Z,5.60
2017-11-11T20:01:25.803Z,7.50
2017-11-11T20:03:54.188Z,5.57
2017-11-11T20:06:22.139Z,5.27
2017-11-11T20:08:49.777Z,4.07
2017-11-11T20:11:17.314Z,5.20
2017-11-11T20:13:45.761Z,3.90
2017-11-11T20:16:13.516Z,4.53
2017-11-11T20:18:41.180Z,4.03
2017-11-11T20:21:08.730Z,6.00
2017-11-11T20:23:36.312Z,8.80
2017-11-11T20:26:04.065Z,6.90
2017-11-11T20:28:31.774Z,6.47
2017-11-11T20:30:59.359Z,8.47
2017-11-11T20:33:26.918Z,7.10
2017-11-11T20:35:54.623Z,9.30
2017-11-11T20:38:23.123Z,6.03
2017-11-11T20:40:50.925Z,6.40
2017-11-11T20:43:18.522Z,7.00
2017-11-11T20:45:46.870Z,8.17
2017-11-11T20:48:14.459Z,5.23
2017-11-11T20:50:43.391Z,4.70
2017-11-11T20:53:12.999Z,7.90
2017-11-11T20:55:40.803Z,15.10
2017-11-11T20:58:08.648Z,14.47
2017-11-11T21:00:36.979Z,20.63
2017-11-11T21:03:04.556Z,25.87
2017-11-11T21:05:32.907Z,24.67
2017-11-11T21:08:00.475Z,20.40
2017-11-11T21:10:28.282Z,11.83
2017-11-11T21:12:56.617Z,12.87
2017-11-11T21:15:24.206Z,10.80
2017-11-11T21:17:51.791Z,18.80
2017-11-11T21:20:19.381Z,10.57
2017-11-11T21:22:46.948Z,13.70
2017-11-11T21:25:15.317Z,15.47
2017-11-11T21:27:42.920Z,16.90
2017-11-11T21:30:11.727Z,14.07
2017-11-11T21:32:40.276Z,15.40
2017-11-11T21:35:07.840Z,16.90
2017-11-11T21:37:35.421Z,17.07
2017-11-11T21:40:02.994Z,18.57
2017-11-11T21:42:30.594Z,19.17
2017-11-11T21:44:59.308Z,15.83
2017-11-11T21:47:27.626Z,17.30
2017-11-11T21:49:55.163Z,13.40
2017-11-11T21:52:22.736Z,12.30
2017-11-11T21:54:50.287Z,12.90
2017-11-11T21:57:17.863Z,13.87
2017-11-11T21:59:45.410Z,11.43
2017-11-11T22:02:12.984Z,11.73
2017-11-11T22:04:40.557Z,12.43
2017-11-11T22:07:08.139Z,12.37
2017-11-11T22:09:35.714Z,14.30
2017-11-11T22:12:03.313Z,14.83
2017-11-11T22:14:30.878Z,11.60
2017-11-11T22:16:58.456Z,11.77
2017-11-11T22:19:26.020Z,13.30
2017-11-11T22:21:54.351Z,13.87
2017-11-11T22:24:22.708Z,13.93
2017-11-11T22:26:50.266Z,13.13
2017-11-11T22:29:17.831Z,13.93
2017-11-11T22:31:45.387Z,12.53
2017-11-11T22:34:12.951Z,11.20
2017-11-11T22:36:40.621Z,14.37
2017-11-11T22:39:08.198Z,14.03
2017-11-11T22:41:36.555Z,11.83
2017-11-11T22:44:04.123Z,10.57
2017-11-11T22:46:31.737Z,13.33
2017-11-11T22:48:59.293Z,12.47
2017-11-11T22:51:26.857Z,13.70
2017-11-11T22:53:54.416Z,11.60
2017-11-11T22:56:21.984Z,10.37
2017-11-11T22:58:49.641Z,11.33
2017-11-11T23:01:17.197Z,11.60
2017-11-11T23:03:44.773Z,11.03
2017-11-11T23:06:12.330Z,9.03
2017-11-11T23:08:39.944Z,15.33
2017-11-11T23:11:08.311Z,8.43
2017-11-11T23:13:36.659Z,9.50
2017-11-11T23:16:04.210Z,9.40
2017-11-11T23:18:31.771Z,10.90
2017-11-11T23:20:59.313Z,10.57
2017-11-11T23:23:26.883Z,10.27
2017-11-11T23:25:54.430Z,8.83
2017-11-11T23:28:21.982Z,11.37
2017-11-11T23:30:49.583Z,10.60
2017-11-11T23:33:17.131Z,14.13
2017-11-11T23:35:45.467Z,10.00
2017-11-11T23:38:13.831Z,9.87
2017-11-11T23:40:42.898Z,9.60
2017-11-11T23:43:10.483Z,12.00
2017-11-11T23:45:38.819Z,10.00
2017-11-11T23:48:06.369Z,8.80
2017-11-11T23:50:33.931Z,12.17
2017-11-11T23:53:01.488Z,9.93
2017-11-11T23:55:29.065Z,10.40
2017-11-11T23:57:56.632Z,11.60
